Atoka, New Mexico
Current Conditions -  °F | °C
As of 4:53 AM on Wednesday 26 Nov 2014 (Local Time) from KCNM Reporting Station
Clear Clear  
Wind Chill: 37°   Ceiling: Unl
Heat Index: 37°   Visibility: 10mi
Dew Point: 16°   Wind: 0mph
Humidity: 42%   Direction: NA
Pressure: 30.17"   Gusts: NA
Location:  32.7449°N, 104.256°W
Report Text: KCNM 261153Z AUTO 00000KT 10SM CLR 03/M09 A3017 RMK AO2 SLP200 T00281089 10111 20006 53010
Loading
Personal Weather Stations






























Interactive Weather Map New forecast layout! Learn more

10-Day Weather Forecast

Advertisements
Track Severe Weather on mobile